Time;durP1;ratioP1;P1;durP2;ratioP2;P2;SDS_P1;SDS_P2;PMS_P1;PMS_P2;Temp;Humidity;BMP_temperature;BMP_pressure;BME280_temperature;BME280_humidity;BME280_pressure;Samples;Min_cycle;Max_cycle;Signal;HPM_P1;HPM_P2
2023/12/07 00:02:24;;;;;;;4.30;3.90;;;18.70;38.80;;;;;;5059203;28;20225;-86
2023/12/07 00:04:50;;;;;;;5.57;4.27;;;18.80;38.80;;;;;;5060319;28;20221;-87
2023/12/07 00:07:15;;;;;;;4.13;3.93;;;18.80;38.80;;;;;;5059807;28;20403;-88
2023/12/07 00:09:41;;;;;;;3.73;3.50;;;18.80;38.80;;;;;;5059616;28;20253;-87
2023/12/07 00:12:07;;;;;;;4.50;4.17;;;18.70;38.70;;;;;;5059437;28;20369;-88
2023/12/07 00:14:32;;;;;;;5.63;5.23;;;18.70;38.70;;;;;;5056071;28;20216;-87
2023/12/07 00:16:58;;;;;;;3.93;3.73;;;18.70;38.80;;;;;;5044252;28;20229;-87
2023/12/07 00:19:23;;;;;;;3.97;3.77;;;18.70;38.80;;;;;;5059111;28;20217;-86
2023/12/07 00:21:49;;;;;;;4.43;4.03;;;18.70;38.80;;;;;;5057846;28;20228;-88
2023/12/07 00:24:14;;;;;;;4.10;3.90;;;18.70;38.70;;;;;;5058714;28;20223;-87
2023/12/07 00:26:40;;;;;;;5.20;4.00;;;18.70;38.80;;;;;;5060359;27;20233;-87
2023/12/07 00:29:05;;;;;;;4.10;3.80;;;18.70;38.90;;;;;;5059240;28;20232;-87
2023/12/07 00:31:31;;;;;;;4.63;4.30;;;18.70;38.90;;;;;;5064468;28;20233;-86
2023/12/07 00:33:57;;;;;;;3.70;3.50;;;18.70;38.90;;;;;;5038071;28;20358;-89
2023/12/07 00:36:22;;;;;;;4.27;3.97;;;18.70;38.90;;;;;;5057311;28;20235;-88
2023/12/07 00:38:48;;;;;;;4.47;4.17;;;18.70;38.90;;;;;;5061574;28;20546;-86
2023/12/07 00:41:13;;;;;;;4.43;4.07;;;18.70;38.90;;;;;;5054498;28;20549;-88
2023/12/07 00:43:39;;;;;;;3.77;3.47;;;18.70;38.90;;;;;;5057970;28;20992;-87
2023/12/07 00:46:08;;;;;;;4.20;3.90;;;18.70;38.90;;;;;;5042012;28;20224;-88
2023/12/07 00:48:33;;;;;;;4.80;4.37;;;18.70;38.90;;;;;;5062625;28;20229;-87
2023/12/07 00:50:59;;;;;;;3.70;3.50;;;18.70;38.90;;;;;;5059394;28;20459;-86
2023/12/07 00:53:24;;;;;;;8.73;3.43;;;18.70;38.90;;;;;;5056839;27;20260;-88
2023/12/07 00:55:50;;;;;;;3.80;3.50;;;18.70;38.90;;;;;;5054403;28;20221;-87
2023/12/07 00:58:16;;;;;;;4.50;4.20;;;18.70;39.00;;;;;;5057140;28;20220;-88
2023/12/07 01:00:44;;;;;;;3.47;3.27;;;18.70;39.00;;;;;;5053046;28;20243;-88
2023/12/07 01:03:18;;;;;;;3.97;3.73;;;18.70;39.00;;;;;;5008755;28;20221;-87
2023/12/07 01:05:48;;;;;;;3.40;3.20;;;18.70;39.00;;;;;;5027574;28;20458;-88
2023/12/07 01:08:14;;;;;;;4.20;3.90;;;18.70;39.00;;;;;;5009574;28;20486;-89
2023/12/07 01:10:42;;;;;;;3.70;3.50;;;18.70;39.10;;;;;;5051972;28;21470;-87
2023/12/07 01:13:11;;;;;;;3.87;3.60;;;18.60;38.90;;;;;;5038636;28;20228;-87
2023/12/07 01:15:37;;;;;;;4.07;3.80;;;18.60;38.90;;;;;;5055897;28;20439;-89
2023/12/07 01:18:03;;;;;;;3.87;3.57;;;18.60;38.90;;;;;;5059630;28;21270;-89
2023/12/07 01:20:28;;;;;;;4.00;3.60;;;18.60;38.90;;;;;;5035735;28;21248;-88
2023/12/07 01:22:54;;;;;;;3.47;3.27;;;18.60;38.90;;;;;;5044993;28;20335;-86
2023/12/07 01:25:21;;;;;;;4.10;3.80;;;18.60;38.90;;;;;;5062182;28;20227;-88
2023/12/07 01:27:47;;;;;;;3.70;3.50;;;18.60;38.90;;;;;;5037757;28;22853;-87
2023/12/07 01:30:16;;;;;;;3.33;3.03;;;18.60;38.90;;;;;;5045585;28;20438;-86
2023/12/07 01:32:41;;;;;;;3.60;3.40;;;18.60;38.90;;;;;;5024451;28;20440;-87
2023/12/07 01:35:08;;;;;;;3.93;3.73;;;18.60;38.90;;;;;;5056786;28;20565;-87
2023/12/07 01:37:33;;;;;;;3.93;3.70;;;18.60;38.90;;;;;;5057945;28;20332;-85
2023/12/07 01:39:59;;;;;;;3.23;3.03;;;18.60;38.90;;;;;;5056689;28;20461;-87
2023/12/07 01:42:24;;;;;;;3.60;3.40;;;18.60;38.90;;;;;;5040588;28;20221;-89
2023/12/07 01:44:50;;;;;;;4.73;4.43;;;18.60;39.00;;;;;;5056443;28;20237;-88
2023/12/07 01:47:15;;;;;;;3.20;3.00;;;18.60;38.90;;;;;;5035433;28;20672;-87
2023/12/07 01:49:41;;;;;;;3.70;3.50;;;18.60;38.90;;;;;;5006287;28;20311;-86
2023/12/07 01:52:09;;;;;;;3.60;3.30;;;18.60;38.90;;;;;;5051980;28;20221;-87
2023/12/07 01:54:35;;;;;;;3.70;3.40;;;18.60;39.00;;;;;;5041213;28;20431;-89
2023/12/07 01:57:04;;;;;;;3.70;3.50;;;18.60;38.90;;;;;;5059645;28;20461;-87
2023/12/07 01:59:29;;;;;;;3.10;2.90;;;18.60;38.90;;;;;;5060281;28;20424;-87
2023/12/07 02:01:55;;;;;;;3.53;3.33;;;18.60;38.90;;;;;;5039393;28;20475;-87
2023/12/07 02:04:21;;;;;;;3.50;3.30;;;18.60;39.00;;;;;;5029112;28;20309;-88
2023/12/07 02:06:46;;;;;;;3.67;3.40;;;18.60;39.00;;;;;;5014684;28;20222;-87
2023/12/07 02:09:12;;;;;;;4.17;3.87;;;18.60;38.90;;;;;;5047058;28;20841;-87
2023/12/07 02:11:37;;;;;;;3.27;3.07;;;18.60;38.90;;;;;;5058973;28;20374;-87
2023/12/07 02:14:03;;;;;;;3.33;3.13;;;18.60;39.00;;;;;;5061620;28;20220;-86
2023/12/07 02:16:56;;;;;;;3.70;3.40;;;18.60;39.00;;;;;;5048306;27;20227;-87
2023/12/07 02:19:33;;;;;;;3.70;3.50;;;18.60;39.00;;;;;;5060541;27;20247;-85
2023/12/07 02:22:05;;;;;;;3.13;2.93;;;18.60;38.90;;;;;;5043192;28;20468;-86
2023/12/07 02:24:34;;;;;;;3.33;3.13;;;18.60;38.90;;;;;;5061035;28;20535;-86
2023/12/07 02:26:59;;;;;;;3.73;3.43;;;18.60;38.90;;;;;;5062955;28;20432;-86
2023/12/07 02:29:25;;;;;;;3.73;3.53;;;18.60;38.90;;;;;;5046175;28;20451;-85
2023/12/07 02:31:50;;;;;;;3.60;3.30;;;18.60;38.90;;;;;;5061242;28;20309;-88
2023/12/07 02:34:16;;;;;;;3.43;3.23;;;18.60;38.90;;;;;;5058451;28;20266;-88
2023/12/07 02:36:44;;;;;;;3.20;3.00;;;18.60;38.90;;;;;;5066653;28;20273;-87
2023/12/07 02:39:12;;;;;;;3.07;2.87;;;18.60;39.00;;;;;;5059549;28;20310;-88
2023/12/07 02:41:39;;;;;;;3.50;3.30;;;18.60;38.90;;;;;;5063811;28;20501;-88
2023/12/07 02:44:05;;;;;;;3.10;2.90;;;18.60;38.90;;;;;;5060585;28;20550;-88
2023/12/07 02:46:33;;;;;;;3.20;3.00;;;18.60;38.90;;;;;;5029877;28;21379;-87
2023/12/07 02:49:05;;;;;;;3.33;3.13;;;18.60;38.90;;;;;;5042849;28;20582;-88
2023/12/07 02:51:31;;;;;;;3.53;3.33;;;18.60;38.90;;;;;;5010484;28;20524;-87
2023/12/07 02:53:56;;;;;;;3.10;2.90;;;18.60;38.90;;;;;;5028593;28;21375;-87
2023/12/07 02:56:22;;;;;;;3.43;3.13;;;18.60;38.90;;;;;;5059050;28;20225;-87
2023/12/07 02:58:47;;;;;;;3.17;2.93;;;18.60;38.90;;;;;;5059740;27;20235;-87
2023/12/07 03:01:13;;;;;;;2.73;2.53;;;18.60;38.90;;;;;;5061451;28;20343;-86
2023/12/07 03:03:40;;;;;;;3.40;3.20;;;18.60;38.90;;;;;;5058139;28;20224;-87
2023/12/07 03:06:09;;;;;;;2.83;2.73;;;18.50;38.80;;;;;;5030731;28;20318;-87
2023/12/07 03:08:37;;;;;;;3.30;3.10;;;18.60;38.90;;;;;;5044895;28;20460;-87
2023/12/07 03:11:06;;;;;;;3.10;2.90;;;18.60;38.90;;;;;;5056747;28;21160;-86
2023/12/07 03:13:34;;;;;;;3.80;3.50;;;18.50;38.80;;;;;;5027781;28;20439;-86
2023/12/07 03:16:09;;;;;;;2.87;2.67;;;18.50;38.70;;;;;;5015410;28;20436;-86
2023/12/07 03:18:36;;;;;;;2.93;2.73;;;18.60;38.90;;;;;;5042939;28;20431;-86
2023/12/07 03:21:03;;;;;;;3.07;2.87;;;18.60;38.90;;;;;;5050592;27;20548;-86
2023/12/07 03:23:28;;;;;;;3.27;3.07;;;18.50;38.80;;;;;;5000828;28;20463;-87
2023/12/07 03:25:54;;;;;;;3.07;2.77;;;18.50;38.80;;;;;;5041588;28;20526;-86
2023/12/07 03:28:20;;;;;;;3.77;2.90;;;18.50;38.80;;;;;;5040776;28;20914;-87
2023/12/07 03:30:45;;;;;;;3.43;3.10;;;18.50;38.80;;;;;;5055135;28;20298;-86
2023/12/07 03:33:11;;;;;;;3.27;3.07;;;18.60;38.90;;;;;;5038602;28;20237;-86
2023/12/07 03:35:37;;;;;;;2.80;2.67;;;18.50;38.80;;;;;;5049040;28;20247;-86
2023/12/07 03:38:02;;;;;;;3.10;2.90;;;18.50;38.80;;;;;;5037781;28;20361;-86
2023/12/07 03:40:28;;;;;;;3.13;2.93;;;18.50;38.80;;;;;;5028097;28;20220;-86
2023/12/07 03:42:54;;;;;;;3.53;3.23;;;18.50;38.80;;;;;;5042469;28;20229;-87
2023/12/07 03:45:19;;;;;;;2.77;2.57;;;18.60;38.90;;;;;;5018519;28;20447;-86
2023/12/07 03:47:45;;;;;;;2.83;2.63;;;18.50;38.80;;;;;;5006802;28;20336;-86
2023/12/07 03:50:11;;;;;;;3.60;3.40;;;18.50;38.90;;;;;;5015982;28;20232;-87
2023/12/07 03:52:37;;;;;;;3.30;3.10;;;18.50;38.80;;;;;;5017310;28;20341;-86
2023/12/07 03:55:02;;;;;;;3.17;2.97;;;18.50;38.80;;;;;;5016026;28;20348;-87
2023/12/07 03:57:28;;;;;;;3.13;2.83;;;18.50;38.80;;;;;;5019284;28;20748;-86
2023/12/07 03:59:54;;;;;;;3.00;2.80;;;18.50;38.80;;;;;;5019382;28;20579;-87
2023/12/07 04:02:19;;;;;;;3.13;2.93;;;18.50;38.80;;;;;;5018965;28;20340;-86
2023/12/07 04:04:50;;;;;;;2.90;2.70;;;18.50;38.80;;;;;;5019418;28;20226;-87
2023/12/07 04:07:16;;;;;;;3.17;2.97;;;18.50;38.70;;;;;;5016520;28;20222;-86
2023/12/07 04:09:45;;;;;;;2.53;2.43;;;18.50;38.80;;;;;;5003114;28;22753;-87
2023/12/07 04:12:13;;;;;;;2.50;2.40;;;18.50;38.80;;;;;;5006252;28;20221;-87
2023/12/07 04:14:39;;;;;;;3.47;3.17;;;18.50;38.80;;;;;;5027803;28;20433;-87
2023/12/07 04:17:04;;;;;;;3.10;2.90;;;18.50;38.80;;;;;;5011095;28;20492;-86
2023/12/07 04:19:30;;;;;;;2.40;2.30;;;18.50;38.70;;;;;;5022373;28;20238;-87
2023/12/07 04:21:58;;;;;;;4.43;2.77;;;18.50;38.80;;;;;;5014841;28;20303;-87
2023/12/07 04:24:23;;;;;;;2.47;2.37;;;18.50;38.80;;;;;;5007681;28;20232;-87
2023/12/07 04:26:49;;;;;;;3.90;3.70;;;18.50;38.80;;;;;;5022310;28;20449;-87
2023/12/07 04:29:17;;;;;;;3.03;2.77;;;18.50;38.90;;;;;;5021882;28;20238;-88
2023/12/07 04:31:44;;;;;;;3.00;2.80;;;18.50;38.80;;;;;;5019702;28;20629;-87
2023/12/07 04:34:09;;;;;;;3.03;2.83;;;18.50;38.80;;;;;;5022480;28;20438;-87
2023/12/07 04:36:35;;;;;;;2.80;2.70;;;18.50;38.80;;;;;;5018648;28;20459;-86
2023/12/07 04:39:00;;;;;;;2.80;2.60;;;18.50;38.80;;;;;;5021496;28;20281;-87
2023/12/07 04:41:26;;;;;;;2.80;2.60;;;18.50;38.80;;;;;;5018265;28;20225;-87
2023/12/07 04:43:51;;;;;;;2.57;2.47;;;18.50;38.80;;;;;;5022759;28;20226;-86
2023/12/07 04:46:17;;;;;;;2.97;2.77;;;18.50;38.80;;;;;;5060554;27;20224;-86
2023/12/07 04:48:43;;;;;;;2.40;2.30;;;18.50;38.80;;;;;;5058332;28;20248;-86
2023/12/07 04:51:08;;;;;;;2.90;2.70;;;18.50;38.70;;;;;;5057389;28;20369;-86
2023/12/07 04:53:34;;;;;;;3.00;2.80;;;18.50;38.80;;;;;;5061546;28;20231;-87
2023/12/07 04:55:59;;;;;;;2.97;2.80;;;18.50;38.80;;;;;;5059372;28;20229;-86
2023/12/07 04:58:25;;;;;;;2.63;2.40;;;18.50;38.70;;;;;;5059873;28;20224;-86
2023/12/07 05:00:50;;;;;;;3.10;2.90;;;18.50;38.70;;;;;;5062010;28;20221;-87
2023/12/07 05:03:16;;;;;;;2.50;2.30;;;18.50;38.70;;;;;;5061245;28;20221;-87
2023/12/07 05:05:41;;;;;;;2.60;2.40;;;18.50;38.70;;;;;;5060883;28;20225;-87
2023/12/07 05:08:08;;;;;;;2.60;2.40;;;18.50;38.70;;;;;;5057558;28;20788;-86
2023/12/07 05:10:34;;;;;;;2.77;2.60;;;18.50;38.70;;;;;;5061802;28;20281;-86
2023/12/07 05:13:00;;;;;;;2.40;2.30;;;18.50;38.70;;;;;;5061613;28;20470;-86
2023/12/07 05:15:27;;;;;;;2.67;2.50;;;18.50;38.60;;;;;;5060946;28;20734;-85
2023/12/07 05:17:53;;;;;;;2.70;2.50;;;18.60;38.70;;;;;;5058338;27;20227;-85
2023/12/07 05:20:22;;;;;;;2.80;2.60;;;18.60;38.70;;;;;;5056768;28;20475;-86
2023/12/07 05:22:48;;;;;;;2.17;2.07;;;18.60;38.60;;;;;;5060522;28;20209;-88
2023/12/07 05:25:13;;;;;;;2.53;2.43;;;18.60;38.60;;;;;;5062404;28;20436;-89
2023/12/07 05:27:39;;;;;;;2.93;2.73;;;18.60;38.50;;;;;;5060538;28;20251;-89
2023/12/07 05:30:05;;;;;;;3.27;3.07;;;18.60;38.50;;;;;;5041867;27;21831;-87
2023/12/07 05:32:31;;;;;;;2.70;2.60;;;18.60;38.40;;;;;;5059064;28;20244;-87
2023/12/07 05:34:56;;;;;;;2.63;2.43;;;18.60;38.50;;;;;;5060932;28;20554;-88
2023/12/07 05:37:22;;;;;;;2.63;2.43;;;18.60;38.40;;;;;;5065626;27;20236;-87
2023/12/07 05:39:47;;;;;;;2.93;2.70;;;18.60;38.50;;;;;;5061594;28;20249;-88
2023/12/07 05:42:13;;;;;;;3.30;2.47;;;18.60;38.40;;;;;;5061943;28;20216;-88
2023/12/07 05:44:38;;;;;;;7.23;2.47;;;18.60;38.50;;;;;;5060058;28;20228;-89
2023/12/07 05:47:04;;;;;;;2.30;2.20;;;18.60;38.30;;;;;;5063358;28;20309;-89
2023/12/07 05:49:29;;;;;;;2.20;2.10;;;18.60;38.30;;;;;;5067814;28;20238;-90
2023/12/07 05:51:55;;;;;;;2.80;2.60;;;18.60;38.20;;;;;;5043896;28;20299;-91
2023/12/07 05:54:22;;;;;;;2.90;2.70;;;18.60;38.10;;;;;;5065035;28;20252;-90
2023/12/07 05:56:48;;;;;;;2.87;2.67;;;18.60;38.10;;;;;;5066328;28;20343;-87
2023/12/07 05:59:13;;;;;;;2.83;2.63;;;18.60;38.20;;;;;;5066665;28;20443;-90
2023/12/07 06:01:39;;;;;;;2.70;2.50;;;18.60;38.20;;;;;;5063229;28;20221;-88
2023/12/07 06:04:08;;;;;;;3.83;2.47;;;18.60;38.00;;;;;;5063097;28;20297;-89
2023/12/07 06:06:33;;;;;;;3.60;2.80;;;18.60;38.00;;;;;;5060618;28;20220;-88
2023/12/07 06:08:59;;;;;;;4.40;3.17;;;18.60;38.00;;;;;;5059727;28;20512;-90
2023/12/07 06:11:25;;;;;;;3.00;2.47;;;18.60;38.00;;;;;;5047802;28;20231;-92
2023/12/07 06:13:50;;;;;;;2.83;2.63;;;18.60;38.00;;;;;;5058128;28;20259;-89
2023/12/07 06:16:18;;;;;;;2.90;2.70;;;18.60;38.00;;;;;;5056748;28;20227;-87
2023/12/07 06:18:44;;;;;;;3.60;3.30;;;18.60;38.00;;;;;;5055340;28;20297;-88
2023/12/07 06:21:09;;;;;;;3.23;2.93;;;18.60;38.00;;;;;;5053810;28;20466;-89
2023/12/07 06:23:35;;;;;;;3.63;3.03;;;18.60;38.00;;;;;;5062735;28;20225;-85
2023/12/07 06:26:02;;;;;;;3.00;2.80;;;18.60;38.00;;;;;;5059351;28;20231;-85
2023/12/07 06:28:27;;;;;;;2.67;2.47;;;18.60;38.00;;;;;;5062863;28;20240;-90
2023/12/07 06:30:53;;;;;;;4.97;4.67;;;18.60;38.00;;;;;;5058263;28;20464;-87
2023/12/07 06:33:19;;;;;;;3.57;2.80;;;18.60;38.00;;;;;;5061215;27;20217;-90
2023/12/07 06:35:46;;;;;;;2.93;2.70;;;18.60;38.00;;;;;;5065172;28;20681;-89
2023/12/07 06:38:12;;;;;;;2.70;2.50;;;18.70;38.10;;;;;;5043849;28;20439;-88
2023/12/07 06:40:37;;;;;;;3.10;2.90;;;18.70;38.10;;;;;;5062023;28;20474;-90
2023/12/07 06:43:03;;;;;;;2.80;2.60;;;18.60;38.00;;;;;;5061518;27;20227;-88
2023/12/07 06:45:28;;;;;;;2.50;2.30;;;18.70;38.10;;;;;;5059041;28;20248;-90
2023/12/07 06:47:54;;;;;;;3.27;3.07;;;18.60;38.00;;;;;;5066390;28;20223;-90
2023/12/07 06:50:19;;;;;;;3.40;3.10;;;18.60;38.00;;;;;;5067231;28;20289;-87
2023/12/07 06:52:45;;;;;;;3.00;2.80;;;18.60;38.00;;;;;;5064924;28;20333;-88
2023/12/07 06:55:10;;;;;;;3.20;2.90;;;18.70;38.10;;;;;;5065566;28;20734;-88
2023/12/07 06:57:36;;;;;;;3.27;3.00;;;18.70;38.10;;;;;;5067456;28;20244;-89
2023/12/07 07:00:05;;;;;;;2.53;2.43;;;18.60;38.00;;;;;;5070587;28;20812;-86
2023/12/07 07:02:31;;;;;;;3.07;2.77;;;18.70;38.60;;;;;;5072847;28;20309;-86
2023/12/07 07:04:57;;;;;;;4.03;2.77;;;18.70;38.20;;;;;;5074170;28;20522;-86
2023/12/07 07:07:22;;;;;;;3.30;3.10;;;18.70;38.30;;;;;;5050810;28;20220;-85
2023/12/07 07:09:48;;;;;;;2.90;2.70;;;18.70;38.20;;;;;;5055094;28;20240;-85
2023/12/07 07:12:13;;;;;;;3.20;3.00;;;18.70;38.20;;;;;;5062613;28;20221;-85
2023/12/07 07:14:39;;;;;;;2.70;2.50;;;18.70;38.30;;;;;;5070317;28;20240;-85
2023/12/07 07:17:05;;;;;;;3.13;2.83;;;18.60;38.20;;;;;;5074112;28;20236;-85
2023/12/07 07:19:31;;;;;;;3.47;3.17;;;18.70;38.30;;;;;;5070923;28;20428;-86
2023/12/07 07:21:56;;;;;;;2.97;2.73;;;18.70;38.30;;;;;;5072157;28;20230;-85
2023/12/07 07:24:22;;;;;;;2.93;2.73;;;18.70;38.30;;;;;;5074075;28;20555;-84
2023/12/07 07:26:47;;;;;;;15.43;10.50;;;18.70;38.30;;;;;;5076472;28;20570;-85
2023/12/07 07:29:13;;;;;;;17.73;11.50;;;18.70;38.10;;;;;;5073118;28;20779;-88
2023/12/07 07:31:39;;;;;;;4.43;4.03;;;18.70;38.10;;;;;;5057200;28;20252;-87
2023/12/07 07:34:04;;;;;;;4.37;3.93;;;18.70;38.10;;;;;;5075491;28;20706;-88
2023/12/07 07:36:31;;;;;;;7.30;4.57;;;18.70;38.10;;;;;;5057558;28;20236;-87
2023/12/07 07:38:56;;;;;;;4.47;3.37;;;18.70;38.10;;;;;;5077341;28;20228;-87
2023/12/07 07:41:22;;;;;;;4.47;4.20;;;18.70;38.10;;;;;;5079200;28;20447;-87
2023/12/07 07:43:48;;;;;;;3.70;3.40;;;18.70;38.10;;;;;;5080053;28;20227;-87
2023/12/07 07:46:14;;;;;;;3.50;3.20;;;18.70;38.10;;;;;;5079985;28;20438;-85
2023/12/07 07:48:40;;;;;;;5.20;3.77;;;18.70;38.10;;;;;;5082279;28;20228;-85
2023/12/07 07:51:06;;;;;;;4.43;4.00;;;18.70;38.10;;;;;;5083289;28;20431;-86
2023/12/07 07:53:31;;;;;;;4.77;3.47;;;18.70;38.10;;;;;;5077241;28;20224;-86
2023/12/07 07:55:57;;;;;;;3.67;3.37;;;18.70;38.10;;;;;;5079593;28;20564;-85
2023/12/07 07:58:22;;;;;;;3.13;2.87;;;18.70;38.10;;;;;;5080576;28;20681;-86
2023/12/07 08:00:48;;;;;;;4.17;3.87;;;18.70;38.10;;;;;;5082627;28;20221;-85
2023/12/07 08:03:13;;;;;;;4.03;3.73;;;18.70;38.10;;;;;;5074428;28;20229;-85
2023/12/07 08:05:39;;;;;;;3.83;3.53;;;18.70;38.10;;;;;;5063383;28;20286;-86
2023/12/07 08:08:04;;;;;;;3.47;3.27;;;18.70;38.10;;;;;;5082560;28;20292;-85
2023/12/07 08:10:30;;;;;;;3.30;3.00;;;18.70;38.20;;;;;;5068044;28;20247;-87
2023/12/07 08:12:56;;;;;;;4.33;3.93;;;18.70;38.10;;;;;;5077196;28;20712;-85
2023/12/07 08:15:21;;;;;;;4.00;3.80;;;18.70;38.10;;;;;;5080658;28;20259;-86
2023/12/07 08:17:47;;;;;;;4.00;3.70;;;18.70;38.30;;;;;;5081020;28;20304;-87
2023/12/07 08:20:14;;;;;;;4.00;3.80;;;18.70;38.10;;;;;;5060068;28;20233;-86
2023/12/07 08:22:43;;;;;;;4.43;4.13;;;18.70;38.20;;;;;;5080757;27;20229;-86
2023/12/07 08:25:10;;;;;;;3.20;3.00;;;18.70;38.10;;;;;;5080494;28;20487;-87
2023/12/07 08:27:39;;;;;;;3.77;3.43;;;18.70;38.10;;;;;;5081343;28;20436;-85
2023/12/07 08:30:05;;;;;;;3.43;3.23;;;18.70;38.10;;;;;;5078003;28;20442;-87
2023/12/07 08:32:31;;;;;;;4.03;3.73;;;18.70;38.10;;;;;;5067099;28;20437;-86
2023/12/07 08:34:56;;;;;;;3.37;3.17;;;18.70;38.20;;;;;;5074842;28;20441;-87
2023/12/07 08:37:22;;;;;;;3.80;3.60;;;18.70;38.10;;;;;;5073748;28;20687;-88
2023/12/07 08:39:48;;;;;;;4.23;3.93;;;18.70;38.10;;;;;;5074637;28;20469;-87
2023/12/07 08:42:14;;;;;;;3.90;3.50;;;18.70;38.10;;;;;;5074013;28;20655;-86
2023/12/07 08:44:40;;;;;;;3.50;3.23;;;18.70;38.10;;;;;;5070321;27;20515;-86
2023/12/07 08:47:05;;;;;;;4.63;4.33;;;18.70;38.10;;;;;;5061772;28;20239;-86
2023/12/07 08:49:31;;;;;;;3.87;3.60;;;18.70;38.10;;;;;;5060672;28;20239;-86
2023/12/07 08:51:57;;;;;;;4.10;3.20;;;18.70;38.10;;;;;;5078050;28;20225;-86
2023/12/07 08:54:23;;;;;;;3.70;3.50;;;18.70;38.10;;;;;;5075313;28;20434;-86
2023/12/07 08:56:48;;;;;;;4.07;3.77;;;18.70;38.10;;;;;;5071545;28;20894;-86
2023/12/07 08:59:14;;;;;;;3.93;3.73;;;18.70;38.10;;;;;;5074513;28;20260;-86
2023/12/07 09:01:39;;;;;;;3.90;3.63;;;18.70;38.10;;;;;;5072380;28;20220;-86
2023/12/07 09:04:05;;;;;;;4.07;3.67;;;18.70;38.10;;;;;;5071020;28;20286;-84
2023/12/07 09:06:31;;;;;;;3.90;3.57;;;18.70;38.10;;;;;;5070514;28;20220;-84
2023/12/07 09:08:56;;;;;;;3.13;2.93;;;18.70;38.10;;;;;;5073908;28;20323;-85
2023/12/07 09:11:22;;;;;;;3.50;3.20;;;18.70;38.10;;;;;;5077371;28;20278;-87
2023/12/07 09:13:48;;;;;;;3.70;3.47;;;18.70;38.10;;;;;;5060207;28;20780;-84
2023/12/07 09:16:14;;;;;;;3.60;3.40;;;18.70;38.10;;;;;;5076300;27;20216;-84
2023/12/07 09:18:41;;;;;;;3.50;3.27;;;18.70;38.10;;;;;;5060432;28;20320;-85
2023/12/07 09:21:07;;;;;;;13.33;3.47;;;18.70;38.10;;;;;;5061413;28;20463;-85
2023/12/07 09:23:34;;;;;;;4.03;3.73;;;18.70;38.10;;;;;;5044321;28;20893;-84
2023/12/07 09:26:00;;;;;;;3.40;3.20;;;18.70;38.10;;;;;;5048253;28;20225;-84
2023/12/07 09:28:25;;;;;;;4.10;3.90;;;18.70;38.10;;;;;;5065844;28;21050;-84
2023/12/07 09:30:51;;;;;;;3.87;3.57;;;18.70;38.10;;;;;;5062610;28;20241;-83
2023/12/07 09:33:17;;;;;;;3.70;3.40;;;18.70;38.10;;;;;;5062068;28;20236;-83
2023/12/07 09:35:42;;;;;;;3.50;3.30;;;18.70;38.10;;;;;;5061679;28;20237;-83
2023/12/07 09:38:09;;;;;;;4.00;3.70;;;18.70;38.10;;;;;;5062891;28;20224;-83
2023/12/07 09:40:35;;;;;;;4.07;3.77;;;18.70;38.10;;;;;;5060980;28;20217;-83
2023/12/07 09:43:00;;;;;;;3.73;3.37;;;18.80;38.20;;;;;;5039327;28;20457;-83
2023/12/07 09:45:26;;;;;;;3.50;3.30;;;18.70;38.10;;;;;;5043056;28;20236;-84
2023/12/07 09:47:54;;;;;;;4.03;3.73;;;18.70;38.10;;;;;;5059333;28;20651;-84
2023/12/07 09:50:21;;;;;;;4.03;3.73;;;18.80;38.20;;;;;;5059886;27;20244;-84
2023/12/07 09:52:52;;;;;;;4.00;3.50;;;18.80;38.20;;;;;;5040381;28;20440;-84
2023/12/07 09:55:18;;;;;;;3.57;3.37;;;18.80;38.20;;;;;;5063336;28;20557;-84
2023/12/07 09:57:44;;;;;;;4.10;3.80;;;18.80;38.20;;;;;;5044787;28;20972;-85
2023/12/07 10:00:14;;;;;;;3.73;3.53;;;18.80;38.20;;;;;;5062010;28;20446;-84
2023/12/07 10:02:41;;;;;;;3.53;3.33;;;18.80;38.20;;;;;;5052237;28;20244;-85
2023/12/07 10:05:09;;;;;;;3.63;3.33;;;18.80;38.20;;;;;;5049595;28;21184;-84
2023/12/07 10:07:40;;;;;;;4.37;4.03;;;18.80;38.20;;;;;;5053740;28;20471;-85
2023/12/07 10:10:06;;;;;;;3.50;3.20;;;18.80;38.20;;;;;;5054302;28;20459;-84
2023/12/07 10:12:34;;;;;;;3.93;3.63;;;18.80;38.20;;;;;;5061356;27;20555;-84
2023/12/07 10:15:02;;;;;;;3.83;3.43;;;18.80;38.20;;;;;;5062131;28;20462;-85
2023/12/07 10:18:01;;;;;;;4.67;3.50;;;18.80;38.20;;;;;;5060220;28;20808;-84
2023/12/07 10:20:29;;;;;;;3.90;3.60;;;18.80;38.20;;;;;;5056874;28;20436;-85
2023/12/07 10:23:17;;;;;;;3.40;3.20;;;18.80;38.20;;;;;;5059337;28;20785;-84
2023/12/07 10:25:42;;;;;;;11.40;3.83;;;18.80;38.20;;;;;;5049058;28;20558;-85
2023/12/07 10:28:11;;;;;;;3.60;3.40;;;18.80;38.20;;;;;;5053220;28;21227;-85
2023/12/07 10:30:39;;;;;;;3.90;3.70;;;18.80;38.20;;;;;;5051755;28;20225;-85
2023/12/07 10:33:06;;;;;;;4.40;4.00;;;18.80;38.20;;;;;;5051575;28;20447;-85
2023/12/07 10:35:32;;;;;;;3.40;3.10;;;18.80;38.20;;;;;;5063003;28;20453;-85
2023/12/07 10:37:58;;;;;;;3.70;3.40;;;18.80;38.20;;;;;;5035170;28;21048;-84
2023/12/07 10:40:23;;;;;;;4.33;3.43;;;18.80;38.20;;;;;;5060747;28;20239;-84
2023/12/07 10:42:52;;;;;;;3.70;3.40;;;18.80;38.20;;;;;;5064849;28;20951;-85
2023/12/07 10:45:21;;;;;;;3.33;3.13;;;18.80;38.20;;;;;;5062342;28;20241;-84
2023/12/07 10:47:48;;;;;;;3.53;3.27;;;18.80;38.20;;;;;;5060321;28;20412;-85
2023/12/07 10:50:21;;;;;;;4.00;3.70;;;18.90;38.20;;;;;;5060949;28;21790;-85
2023/12/07 10:52:59;;;;;;;3.40;3.10;;;18.90;38.20;;;;;;5060291;28;20463;-84
2023/12/07 10:55:41;;;;;;;4.23;3.93;;;18.90;38.20;;;;;;5051575;28;20468;-85
2023/12/07 10:58:08;;;;;;;3.40;3.10;;;18.90;38.20;;;;;;5058505;28;20448;-85
2023/12/07 11:00:34;;;;;;;3.37;3.17;;;18.90;38.20;;;;;;5059546;28;20436;-85
2023/12/07 11:03:00;;;;;;;3.83;3.50;;;18.90;39.00;;;;;;5042379;28;20439;-85
2023/12/07 11:05:29;;;;;;;5.77;4.37;;;18.90;38.20;;;;;;5063254;27;20630;-85
2023/12/07 11:08:09;;;;;;;3.90;3.60;;;18.90;38.20;;;;;;5060125;28;20448;-86
2023/12/07 11:10:57;;;;;;;4.40;4.00;;;18.90;38.20;;;;;;5060519;28;20584;-85
2023/12/07 11:13:28;;;;;;;3.80;3.50;;;18.90;38.30;;;;;;5060734;28;20534;-86
2023/12/07 11:15:54;;;;;;;3.70;3.50;;;18.90;38.20;;;;;;5055952;28;20440;-86
2023/12/07 11:18:20;;;;;;;3.40;3.20;;;18.90;38.20;;;;;;5053018;28;20469;-86
2023/12/07 11:20:47;;;;;;;3.63;3.43;;;18.90;38.20;;;;;;5055699;28;20223;-86
2023/12/07 11:23:19;;;;;;;3.80;3.50;;;18.90;38.20;;;;;;5062828;28;20765;-85
2023/12/07 11:25:46;;;;;;;3.63;3.33;;;18.90;38.20;;;;;;5068494;28;20568;-85
2023/12/07 11:28:12;;;;;;;3.40;3.10;;;18.90;38.20;;;;;;5067804;28;21557;-84
2023/12/07 11:30:41;;;;;;;3.57;3.27;;;18.90;38.20;;;;;;5072312;28;20425;-86
2023/12/07 11:33:07;;;;;;;4.00;3.60;;;18.90;38.20;;;;;;5053774;28;20444;-85
2023/12/07 11:36:01;;;;;;;4.10;3.80;;;18.90;38.20;;;;;;5073974;28;20517;-86
2023/12/07 11:38:27;;;;;;;4.23;3.57;;;18.90;38.20;;;;;;5048707;28;20419;-84
2023/12/07 11:40:55;;;;;;;3.50;3.13;;;18.90;38.20;;;;;;5071581;28;20437;-86
2023/12/07 11:43:33;;;;;;;3.67;3.37;;;18.90;38.20;;;;;;5040754;28;21298;-87
2023/12/07 11:45:59;;;;;;;4.07;3.70;;;18.90;38.30;;;;;;5052275;28;20947;-84
2023/12/07 11:48:25;;;;;;;5.07;4.63;;;18.90;38.20;;;;;;5053533;28;20460;-85
2023/12/07 11:51:04;;;;;;;4.00;3.67;;;18.90;38.20;;;;;;5055790;28;20442;-85
2023/12/07 11:53:34;;;;;;;3.90;3.60;;;18.90;38.20;;;;;;5056615;28;20217;-84
2023/12/07 11:56:02;;;;;;;3.93;3.63;;;18.90;38.20;;;;;;5060913;28;20465;-85
2023/12/07 11:58:30;;;;;;;4.43;3.70;;;18.90;38.20;;;;;;5043934;28;21412;-85
2023/12/07 12:00:56;;;;;;;4.40;4.00;;;19.00;38.30;;;;;;5061530;28;20432;-85
2023/12/07 12:03:23;;;;;;;3.97;3.67;;;18.90;38.30;;;;;;5040864;28;21649;-84
2023/12/07 12:05:48;;;;;;;3.87;3.57;;;18.90;38.20;;;;;;5055278;28;20435;-85
2023/12/07 12:08:15;;;;;;;4.13;3.83;;;18.90;38.30;;;;;;5055407;28;20469;-85
2023/12/07 12:10:42;;;;;;;5.73;4.17;;;19.00;38.30;;;;;;5059216;28;20450;-85
2023/12/07 12:13:08;;;;;;;4.20;3.90;;;18.90;38.20;;;;;;5059435;28;20458;-85
2023/12/07 12:15:34;;;;;;;4.50;4.20;;;18.90;38.20;;;;;;5063741;28;20440;-85
2023/12/07 12:18:00;;;;;;;4.30;3.90;;;19.00;38.30;;;;;;5059765;28;20432;-85
2023/12/07 12:20:27;;;;;;;4.93;4.53;;;19.00;38.30;;;;;;5058097;28;20231;-85
2023/12/07 12:22:53;;;;;;;4.47;4.07;;;19.00;38.30;;;;;;5061675;28;20453;-85
2023/12/07 12:25:25;;;;;;;4.37;3.97;;;19.00;38.30;;;;;;5042500;28;21474;-85
2023/12/07 12:27:55;;;;;;;3.83;3.63;;;19.00;38.30;;;;;;5036015;28;20436;-85
2023/12/07 12:30:24;;;;;;;4.13;3.77;;;19.00;38.30;;;;;;5059666;28;20476;-85
2023/12/07 12:32:50;;;;;;;4.03;3.73;;;19.00;38.20;;;;;;5056124;28;20528;-84
2023/12/07 12:35:17;;;;;;;4.53;4.23;;;19.00;38.30;;;;;;5051198;28;20432;-85
2023/12/07 12:37:48;;;;;;;4.73;4.33;;;19.00;38.30;;;;;;5057556;28;20471;-85
2023/12/07 12:40:15;;;;;;;4.50;4.20;;;19.00;38.30;;;;;;5054138;28;20444;-86
2023/12/07 12:42:43;;;;;;;4.33;4.00;;;19.00;38.30;;;;;;5052505;27;20526;-85
2023/12/07 12:45:10;;;;;;;3.73;3.53;;;19.00;38.30;;;;;;5056814;28;20448;-86